Jackson, MN

12:23 AM CST on December 12, 2017 (GMT -0600)
Jackson Municipal

Weather History for KMJQ - September, 2013

Change the Weather History Date:

Sunday, September 22, 2013

  Actual Average Record
Temperature  
Mean Temperature 65 °F -  
Max Temperature 82 °F 67 °F 91 °F (2017)
Min Temperature 48 °F 44 °F 35 °F (1998)
Growing Degree Days 15 (Base 50)    
Moisture  
Dew Point 46 °F    
Average Humidity 56    
Maximum Humidity 82    
Minimum Humidity 25    
Precipitation  
Precipitation 0.00 in - - ()
Sea Level Pressure  
Sea Level Pressure 29.87 in    
Wind  
Wind Speed 10 mph (SSE)    
Max Wind Speed 20 mph    
Max Gust Speed 26 mph    
Visibility 10 miles    
Events      
Averages and records for this station are not official NWS values.
T = Trace of Precipitation, MM = Missing Value Source: NWS Daily Summary

Daily Weather History Graph

Daily Weather History Graph

Search for Another Location

Airport or City:

Trip Planner

Search our weather history database for the weather conditions in past years. The results will help you decide how hot, cold, wet, or windy it might be!

Date:

Astronomy

Sep. 22, 2013 Rise Set
Actual Time 7:07 AM CDT 7:16 PM CDT
Civil Twilight 6:38 AM CDT 7:45 PM CDT
Nautical Twilight 6:05 AM CDT 8:18 PM CDT
Astronomical Twilight 5:30 AM CDT 8:53 PM CDT
Moon 8:59 PM CDT (9/22) 10:36 AM CDT (9/22)
Length of Visible Light 13h 06m
Length of Day
12h 09m
Waning Gibbous, 88% of the Moon is Illuminated
Sep 22
Waning Gibbous
Sep 26
Last Quarter
Oct 4
New
Oct 11
First Quarter
Oct 18
Full

Hourly Weather History & Observations

Time (CDT) Temp. Dew Point Humidity Pressure Visibility Wind Dir Wind Speed Gust Speed Precip Events Conditions
12:13 AM 50.0 °F 44.6 °F 82% 29.92 in 10.0 mi ESE 6.9 mph - N/A   Clear
12:34 AM 50.0 °F 44.6 °F 82% 29.92 in 10.0 mi ESE 6.9 mph - N/A   Clear
12:53 AM 50.0 °F 44.6 °F 82% 29.92 in 10.0 mi ESE 6.9 mph - N/A   Clear
1:13 AM 50.0 °F 44.6 °F 82% 29.92 in 10.0 mi ESE 6.9 mph - N/A   Clear
1:34 AM 50.0 °F 42.8 °F 76% 29.92 in 10.0 mi SE 6.9 mph - N/A   Clear
1:53 AM 50.0 °F 42.8 °F 76% 29.92 in 10.0 mi ESE 8.1 mph - N/A   Clear
2:13 AM 48.2 °F 42.8 °F 82% 29.92 in 10.0 mi ESE 5.8 mph - N/A   Clear
2:34 AM 48.2 °F 42.8 °F 82% 29.92 in 10.0 mi SE 4.6 mph - N/A   Clear
2:53 AM 48.2 °F 42.8 °F 82% 29.91 in 10.0 mi SE 5.8 mph - N/A   Clear
3:13 AM 50.0 °F 42.8 °F 76% 29.91 in 10.0 mi SE 6.9 mph - N/A   Clear
3:34 AM 50.0 °F 42.8 °F 76% 29.91 in 10.0 mi SE 6.9 mph - N/A   Clear
3:53 AM 50.0 °F 42.8 °F 76% 29.91 in 10.0 mi SE 8.1 mph - N/A   Clear
4:13 AM 50.0 °F 42.8 °F 76% 29.91 in 10.0 mi SE 8.1 mph - N/A   Clear
4:34 AM 50.0 °F 42.8 °F 76% 29.90 in 10.0 mi SE 8.1 mph - N/A   Clear
4:53 AM 50.0 °F 42.8 °F 76% 29.90 in 10.0 mi SE 8.1 mph - N/A   Clear
5:13 AM 50.0 °F 42.8 °F 76% 29.90 in 10.0 mi SE 8.1 mph - N/A   Clear
5:34 AM 50.0 °F 42.8 °F 76% 29.89 in 10.0 mi SE 8.1 mph - N/A   Clear
5:53 AM 50.0 °F 42.8 °F 76% 29.89 in 10.0 mi SE 9.2 mph - N/A   Clear
6:14 AM 50.0 °F 42.8 °F 76% 29.89 in 10.0 mi SE 8.1 mph - N/A   Clear
6:33 AM 50.0 °F 42.8 °F 76% 29.89 in 10.0 mi SSE 10.4 mph - N/A   Clear
6:53 AM 50.0 °F 42.8 °F 76% 29.89 in 10.0 mi SSE 10.4 mph - N/A   Clear
7:14 AM 50.0 °F 42.8 °F 76% 29.90 in 10.0 mi SSE 11.5 mph - N/A   Clear
7:33 AM 50.0 °F 42.8 °F 76% 29.90 in 10.0 mi SSE 11.5 mph - N/A   Clear
7:53 AM 50.0 °F 44.6 °F 82% 29.90 in 10.0 mi SSE 11.5 mph - N/A   Clear
8:14 AM 51.8 °F 44.6 °F 76% 29.90 in 10.0 mi SSE 11.5 mph - N/A   Clear
8:33 AM 53.6 °F 44.6 °F 72% 29.89 in 10.0 mi SSE 11.5 mph - N/A   Clear
8:53 AM 55.4 °F 46.4 °F 72% 29.89 in 10.0 mi SSE 11.5 mph - N/A   Clear
9:14 AM 57.2 °F 46.4 °F 67% 29.90 in 10.0 mi SSE 13.8 mph - N/A   Clear
9:33 AM 59.0 °F 46.4 °F 63% 29.90 in 10.0 mi SSE 11.5 mph 18.4 mph N/A   Clear
9:53 AM 62.6 °F 48.2 °F 59% 29.90 in 10.0 mi SSE 10.4 mph 17.3 mph N/A   Clear
10:14 AM 64.4 °F 50.0 °F 59% 29.90 in 10.0 mi South 12.7 mph - N/A   Clear
10:33 AM 66.2 °F 50.0 °F 56% 29.90 in 10.0 mi South 11.5 mph 17.3 mph N/A   Clear
10:53 AM 68.0 °F 50.0 °F 52% 29.90 in 10.0 mi SSE 11.5 mph 16.1 mph N/A   Clear
11:14 AM 69.8 °F 50.0 °F 49% 29.89 in 10.0 mi South 9.2 mph - N/A   Clear
11:33 AM 71.6 °F 50.0 °F 46% 29.88 in 10.0 mi South 11.5 mph - N/A   Clear
11:53 AM 73.4 °F 50.0 °F 44% 29.88 in 10.0 mi South 10.4 mph 17.3 mph N/A   Clear
12:14 PM 75.2 °F 48.2 °F 38% 29.88 in 10.0 mi South 12.7 mph - N/A   Clear
12:33 PM 77.0 °F 46.4 °F 34% 29.87 in 10.0 mi South 12.7 mph 20.7 mph N/A   Clear
12:53 PM 78.8 °F 46.4 °F 32% 29.87 in 10.0 mi South 16.1 mph 19.6 mph N/A   Clear
1:14 PM 78.8 °F 46.4 °F 32% 29.86 in 10.0 mi South 11.5 mph 20.7 mph N/A   Clear
1:33 PM 78.8 °F 46.4 °F 32% 29.86 in 10.0 mi SSW 12.7 mph - N/A   Clear
1:53 PM 80.6 °F 46.4 °F 30% 29.86 in 10.0 mi South 17.3 mph 25.3 mph N/A   Clear
2:14 PM 80.6 °F 44.6 °F 28% 29.84 in 10.0 mi South 11.5 mph 23.0 mph N/A   Clear
2:33 PM 80.6 °F 44.6 °F 28% 29.83 in 10.0 mi South 17.3 mph 24.2 mph N/A   Clear
2:53 PM 80.6 °F 44.6 °F 28% 29.83 in 10.0 mi South 17.3 mph 25.3 mph N/A   Clear
3:13 PM 82.4 °F 44.6 °F 26% 29.83 in 10.0 mi South 17.3 mph 26.5 mph N/A   Clear
3:33 PM 82.4 °F 42.8 °F 25% 29.83 in 10.0 mi South 16.1 mph 24.2 mph N/A   Clear
3:54 PM 82.4 °F 42.8 °F 25% 29.82 in 10.0 mi South 18.4 mph 24.2 mph N/A   Clear
4:13 PM 80.6 °F 42.8 °F 26% 29.82 in 10.0 mi South 18.4 mph 23.0 mph N/A   Clear
4:33 PM 80.6 °F 44.6 °F 28% 29.81 in 10.0 mi South 13.8 mph 24.2 mph N/A   Clear
4:54 PM 80.6 °F 42.8 °F 26% 29.81 in 10.0 mi South 17.3 mph 23.0 mph N/A   Clear
5:13 PM 80.6 °F 42.8 °F 26% 29.81 in 10.0 mi South 19.6 mph 26.5 mph N/A   Clear
5:33 PM 78.8 °F 42.8 °F 28% 29.81 in 10.0 mi South 16.1 mph 25.3 mph N/A   Clear
5:54 PM 78.8 °F 44.6 °F 30% 29.82 in 10.0 mi South 18.4 mph 25.3 mph N/A   Clear
6:13 PM 78.8 °F 44.6 °F 30% 29.82 in 10.0 mi South 15.0 mph 21.9 mph N/A   Clear
6:33 PM 77.0 °F 44.6 °F 32% 29.82 in 10.0 mi South 15.0 mph 18.4 mph N/A   Clear
6:54 PM 73.4 °F 46.4 °F 38% 29.82 in 10.0 mi South 8.1 mph - N/A   Clear
7:13 PM 71.6 °F 46.4 °F 41% 29.82 in 10.0 mi SSE 9.2 mph - N/A   Clear
7:33 PM 71.6 °F 46.4 °F 41% 29.83 in 10.0 mi SSE 8.1 mph - N/A   Clear
7:53 PM 69.8 °F 46.4 °F 43% 29.83 in 10.0 mi SSE 8.1 mph - N/A   Clear
8:13 PM 69.8 °F 48.2 °F 46% 29.84 in 10.0 mi SSE 9.2 mph - N/A   Clear
8:34 PM 68.0 °F 50.0 °F 52% 29.84 in 10.0 mi SSE 10.4 mph - N/A   Clear
8:53 PM 68.0 °F 50.0 °F 52% 29.84 in 10.0 mi SSE 11.5 mph - N/A   Clear
9:13 PM 68.0 °F 50.0 °F 52% 29.85 in 10.0 mi SSE 10.4 mph - N/A   Clear
9:33 PM 66.2 °F 50.0 °F 56% 29.85 in 10.0 mi SSE 10.4 mph - N/A   Clear
9:53 PM 64.4 °F 50.0 °F 59% 29.85 in 10.0 mi SSE 12.7 mph 19.6 mph N/A   Clear
10:13 PM 64.4 °F 50.0 °F 59% 29.86 in 10.0 mi SSE 13.8 mph 18.4 mph N/A   Clear
10:33 PM 64.4 °F 51.8 °F 64% 29.86 in 10.0 mi SSE 13.8 mph 19.6 mph N/A   Clear
10:53 PM 64.4 °F 51.8 °F 64% 29.86 in 10.0 mi SSE 12.7 mph 19.6 mph N/A   Clear
11:13 PM 64.4 °F 51.8 °F 64% 29.86 in 10.0 mi SSE 13.8 mph - N/A   Clear
11:33 PM 64.4 °F 51.8 °F 64% 29.86 in 10.0 mi SSE 15.0 mph 23.0 mph N/A   Clear
11:53 PM 62.6 °F 51.8 °F 68% 29.86 in 10.0 mi SSE 13.8 mph 21.9 mph N/A   Clear